Portada
METAR-TAF:

METAR-TAF

Aeroports :

Al Wajh, Aràbia Saudita

latitud: 26-12N, longitud: 036-28E, altitud: 20 m

Observació

L'informe es va fer fa 50 minuts, a les 14:00 UTC
Vent 16 kt del Oest/Nord-Oest
Temperatura 32°C
Humitat 67%
Pressió 1007 hPa
Visibilitat 10 km o més
sense núvols per sota de 1500 mi sense presència de cumulonimbus.

METAR: OEWJ 061400Z 30016KT CAVOK 32/25 Q1007 NOSIG

Hora: 17:50 (14:50 UTC)

Pronòstic

L'informe es va fer fa 3 hores i 50 minuts, a les 11:00 UTC
Pronòstic vàlid del 06 a les 12 UTC al 07 a les 18 UTC
Vent 14 kt del Oest/Nord-Oest
Visibilitat 10 km o més
sense núvols per sota de 1500 mi sense presència de cumulonimbus.
Evolucionant progressivament
l' 06 a les 18 UTC al 06 a les 20 UTC
Vent 3 kt amb direcció variable
Evolucionant progressivament
l' 07 a les 00 UTC al 07 a les 02 UTC
Vent 10 kt del Nord/Nord-Est

TAF: OEWJ 061100Z 0612/0718 30014KT CAVOK BECMG 0618/0620 VRB03KT BECMG 0700/0702 03010KT

Observacions i pronòstics meteorològics de més de 4000 aeroports (METAR i TAF).

Les estacions disponibles són els punts grocs i vermells al mapa.

Posi el ratolí al punt desitjat per veure el nom de l'estació.

Feu clic per veure les observacions i els pronòstics meteorològics.

Per canviar el mapa: feu clic els botons verds amb una creu de color negre per apropar; al botó verd amb un guió per allunyar la imatge; o en les fletxes verdes per a mapes adjacents.


METAR-TAF: